createdAt,value
2022-09-28T00:00:07.752Z,12.00
2022-09-28T00:02:42.205Z,9.40
2022-09-28T00:05:11.275Z,8.33
2022-09-28T00:07:39.944Z,11.33
2022-09-28T00:10:10.892Z,7.27
2022-09-28T00:12:39.702Z,9.10
2022-09-28T00:15:09.301Z,8.93
2022-09-28T00:17:37.634Z,8.77
2022-09-28T00:20:08.121Z,11.63
2022-09-28T00:22:36.583Z,11.83
2022-09-28T00:25:05.882Z,7.80
2022-09-28T00:27:34.631Z,9.27
2022-09-28T00:30:03.201Z,8.97
2022-09-28T00:32:32.353Z,7.93
2022-09-28T00:35:00.885Z,7.80
2022-09-28T00:37:30.566Z,9.17
2022-09-28T00:39:59.462Z,10.77
2022-09-28T00:42:28.402Z,9.23
2022-09-28T00:44:58.169Z,8.53
2022-09-28T00:47:43.820Z,12.37
2022-09-28T00:50:18.532Z,10.73
2022-09-28T00:52:54.457Z,13.27
2022-09-28T00:55:31.074Z,10.23
2022-09-28T00:58:04.939Z,8.87
2022-09-28T01:00:33.473Z,11.17
2022-09-28T01:03:02.213Z,12.70
2022-09-28T01:05:31.682Z,14.43
2022-09-28T01:08:03.698Z,10.90
2022-09-28T01:10:33.610Z,11.77
2022-09-28T01:13:04.077Z,15.30
2022-09-28T01:15:40.413Z,14.10
2022-09-28T01:18:18.852Z,13.83
2022-09-28T01:21:01.636Z,13.60
2022-09-28T01:23:55.755Z,12.20
2022-09-28T01:26:49.944Z,19.70
2022-09-28T01:29:24.432Z,14.80
2022-09-28T01:32:08.692Z,13.67
2022-09-28T01:34:43.712Z,14.47
2022-09-28T01:37:17.909Z,15.53
2022-09-28T01:39:49.846Z,14.03
2022-09-28T01:42:23.878Z,15.93
2022-09-28T01:44:56.264Z,19.07
2022-09-28T01:47:28.339Z,13.63
2022-09-28T01:50:05.174Z,19.63
2022-09-28T01:52:41.682Z,17.90
2022-09-28T01:55:15.010Z,19.73
2022-09-28T01:57:52.882Z,19.17
2022-09-28T02:00:24.205Z,20.50
2022-09-28T02:02:57.743Z,21.57
2022-09-28T02:05:38.765Z,22.43
2022-09-28T02:08:11.478Z,22.60
2022-09-28T02:10:48.519Z,25.33
2022-09-28T02:13:25.049Z,24.83
2022-09-28T02:15:58.645Z,25.00
2022-09-28T02:18:27.065Z,23.07
2022-09-28T02:21:07.714Z,25.87
2022-09-28T02:23:40.755Z,21.63
2022-09-28T02:26:15.100Z,28.03
2022-09-28T02:28:45.073Z,24.10
2022-09-28T02:31:13.746Z,24.50
2022-09-28T02:33:45.230Z,23.77
2022-09-28T02:36:14.236Z,28.47
2022-09-28T02:38:42.781Z,27.13
2022-09-28T02:41:22.504Z,27.03
2022-09-28T02:44:03.587Z,29.20
2022-09-28T02:46:44.701Z,28.57
2022-09-28T02:49:29.229Z,30.90
2022-09-28T02:52:20.723Z,32.43
2022-09-28T02:55:20.556Z,23.90
2022-09-28T02:58:15.321Z,27.53
2022-09-28T03:00:52.709Z,30.63
2022-09-28T03:03:30.683Z,27.33
2022-09-28T03:06:04.671Z,32.67
2022-09-28T03:08:43.881Z,34.93
2022-09-28T03:11:19.866Z,35.50
2022-09-28T03:13:52.877Z,36.90
2022-09-28T03:16:28.379Z,42.07
2022-09-28T03:18:56.913Z,48.17
2022-09-28T03:21:28.137Z,42.33
2022-09-28T03:23:56.591Z,47.83
2022-09-28T03:26:25.159Z,50.13
2022-09-28T03:28:56.562Z,42.70
2022-09-28T03:31:28.560Z,44.87
2022-09-28T03:34:00.435Z,47.57
2022-09-28T03:36:29.286Z,46.83
2022-09-28T03:38:59.602Z,46.63
2022-09-28T03:41:29.055Z,46.20
2022-09-28T03:43:57.545Z,44.13
2022-09-28T03:46:33.613Z,48.40
2022-09-28T03:49:07.252Z,48.83
2022-09-28T03:51:35.646Z,44.33
2022-09-28T03:54:04.066Z,40.00
2022-09-28T03:56:32.433Z,46.73
2022-09-28T03:59:01.005Z,42.80
2022-09-28T04:01:31.046Z,47.37
2022-09-28T04:03:59.952Z,46.47
2022-09-28T04:06:28.719Z,45.63
2022-09-28T04:08:57.670Z,40.67
2022-09-28T04:11:26.977Z,40.47
2022-09-28T04:13:55.497Z,38.03
2022-09-28T04:16:24.683Z,40.37
2022-09-28T04:19:04.182Z,42.37
2022-09-28T04:21:55.380Z,35.07
2022-09-28T04:24:24.441Z,45.03
2022-09-28T04:27:13.167Z,32.43
2022-09-28T04:29:43.229Z,34.97
2022-09-28T04:32:13.113Z,35.23
2022-09-28T04:34:44.500Z,35.80
2022-09-28T04:37:13.546Z,29.67
2022-09-28T04:39:46.258Z,31.57
2022-09-28T04:42:19.247Z,34.90
2022-09-28T04:44:48.371Z,28.70
2022-09-28T04:47:16.897Z,34.53
2022-09-28T04:50:11.583Z,29.47
2022-09-28T04:53:01.852Z,29.20
2022-09-28T04:55:32.577Z,24.90
2022-09-28T04:58:03.059Z,32.47
2022-09-28T05:00:35.349Z,33.00
2022-09-28T05:03:26.973Z,32.17
2022-09-28T05:06:16.420Z,29.50
2022-09-28T05:08:47.277Z,27.83
2022-09-28T05:11:16.817Z,30.90
2022-09-28T05:13:48.693Z,32.77
2022-09-28T05:16:20.505Z,30.10
2022-09-28T05:19:07.879Z,29.07
2022-09-28T05:21:37.809Z,30.13
2022-09-28T05:24:07.830Z,28.37
2022-09-28T05:26:39.082Z,26.60
2022-09-28T05:29:09.409Z,29.27
2022-09-28T05:32:07.453Z,25.13
2022-09-28T05:34:39.017Z,22.93
2022-09-28T05:37:11.028Z,29.87
2022-09-28T05:39:39.562Z,26.03
2022-09-28T05:42:08.136Z,27.03
2022-09-28T05:44:38.473Z,25.03
2022-09-28T05:47:07.266Z,28.10
2022-09-28T05:49:35.860Z,25.87
2022-09-28T05:52:04.379Z,24.63
2022-09-28T05:54:36.966Z,22.37
2022-09-28T05:57:07.609Z,22.87
2022-09-28T05:59:36.425Z,24.57
2022-09-28T06:02:06.983Z,23.23
2022-09-28T06:04:35.425Z,34.37
2022-09-28T06:07:04.374Z,25.93
2022-09-28T06:09:33.079Z,24.27
2022-09-28T06:12:06.242Z,23.30
2022-09-28T06:14:44.911Z,22.20
2022-09-28T06:17:13.992Z,20.73
2022-09-28T06:19:45.511Z,18.93
2022-09-28T06:22:16.609Z,21.10
2022-09-28T06:24:52.577Z,20.70
2022-09-28T06:27:22.515Z,18.83
2022-09-28T06:29:51.062Z,25.43
2022-09-28T06:32:19.861Z,27.20
2022-09-28T06:34:56.071Z,21.97
2022-09-28T06:37:27.384Z,18.27
2022-09-28T06:39:56.646Z,20.87
2022-09-28T06:42:27.072Z,20.77
2022-09-28T06:45:25.783Z,22.43
2022-09-28T06:48:26.398Z,20.87
2022-09-28T06:50:55.085Z,18.23
2022-09-28T06:53:29.346Z,21.03
2022-09-28T06:56:05.126Z,18.20
2022-09-28T06:58:37.383Z,20.07
2022-09-28T07:01:06.047Z,18.73
2022-09-28T07:03:44.879Z,20.10
2022-09-28T07:06:48.192Z,19.60
2022-09-28T07:09:48.111Z,17.13
2022-09-28T07:12:30.317Z,20.23
2022-09-28T07:15:05.227Z,20.83
2022-09-28T07:17:44.692Z,17.53
2022-09-28T07:20:20.644Z,19.07
2022-09-28T07:22:54.709Z,21.20
2022-09-28T07:25:25.787Z,18.50
2022-09-28T07:28:21.343Z,18.37
2022-09-28T07:31:21.324Z,17.97
2022-09-28T07:34:07.138Z,18.37
2022-09-28T07:36:59.726Z,17.20
2022-09-28T07:39:28.364Z,15.57
2022-09-28T07:42:02.418Z,16.00
2022-09-28T07:44:31.529Z,16.93
2022-09-28T07:47:02.155Z,21.57
2022-09-28T07:49:54.522Z,13.47
2022-09-28T07:52:39.995Z,14.27
2022-09-28T07:55:20.273Z,17.17
2022-09-28T07:57:56.288Z,15.67
2022-09-28T08:00:48.852Z,17.17
2022-09-28T08:03:20.233Z,15.60
2022-09-28T08:05:48.727Z,16.00
2022-09-28T08:08:18.598Z,14.50
2022-09-28T08:10:47.743Z,11.47
2022-09-28T08:13:27.044Z,14.63
2022-09-28T08:16:15.765Z,12.03
2022-09-28T08:19:14.714Z,10.97
2022-09-28T08:21:45.108Z,10.57
2022-09-28T08:24:15.227Z,9.83
2022-09-28T08:26:44.325Z,8.83
2022-09-28T08:29:16.325Z,12.07
2022-09-28T08:31:44.979Z,10.97
2022-09-28T08:34:42.617Z,10.53
2022-09-28T08:37:34.232Z,12.63
2022-09-28T08:40:24.841Z,10.20
2022-09-28T08:43:25.067Z,12.17
2022-09-28T08:46:27.160Z,9.97
2022-09-28T08:49:26.729Z,11.63
2022-09-28T08:52:16.587Z,6.13
2022-09-28T08:55:12.781Z,6.07
2022-09-28T08:57:50.236Z,7.37
2022-09-28T09:00:23.075Z,6.73
2022-09-28T09:02:51.891Z,8.53
2022-09-28T09:05:29.174Z,6.27
2022-09-28T09:08:19.547Z,6.13
2022-09-28T09:10:53.581Z,9.13
2022-09-28T09:14:06.765Z,9.50
2022-09-28T09:16:46.164Z,6.70
2022-09-28T09:19:36.799Z,7.50
2022-09-28T09:22:40.992Z,8.63
2022-09-28T09:25:20.325Z,5.77
2022-09-28T09:28:32.747Z,8.83
2022-09-28T09:31:11.279Z,9.57
2022-09-28T09:34:02.819Z,6.40
2022-09-28T09:37:08.694Z,6.53
2022-09-28T09:40:30.477Z,10.17
2022-09-28T09:43:16.220Z,7.40
2022-09-28T09:46:12.772Z,7.47
2022-09-28T09:49:06.767Z,5.40
2022-09-28T09:51:43.234Z,5.63
2022-09-28T09:54:19.709Z,7.00
2022-09-28T09:56:55.193Z,6.93
2022-09-28T09:59:45.114Z,9.37
2022-09-28T10:02:25.776Z,5.20
2022-09-28T10:05:08.146Z,8.43
2022-09-28T10:07:43.790Z,8.43
2022-09-28T10:10:17.214Z,7.40
2022-09-28T10:12:52.565Z,7.07
2022-09-28T10:15:27.289Z,7.57
2022-09-28T10:18:20.242Z,3.87
2022-09-28T10:21:07.291Z,5.23
2022-09-28T10:23:45.945Z,4.37
2022-09-28T10:26:25.123Z,3.70
2022-09-28T10:29:00.959Z,5.50
2022-09-28T10:31:42.067Z,4.33
2022-09-28T10:34:20.407Z,2.70
2022-09-28T10:36:55.920Z,5.00
2022-09-28T10:39:36.686Z,5.00
2022-09-28T10:42:08.999Z,5.77
2022-09-28T10:44:51.746Z,4.23
2022-09-28T10:47:30.627Z,6.67
2022-09-28T10:50:01.002Z,3.73
2022-09-28T10:52:36.230Z,2.60
2022-09-28T10:55:28.264Z,6.43
2022-09-28T10:57:56.948Z,4.80
2022-09-28T11:00:38.756Z,7.23
2022-09-28T11:03:22.002Z,2.77
2022-09-28T11:06:00.307Z,3.80
2022-09-28T11:08:33.034Z,2.10
2022-09-28T11:11:10.271Z,3.70
2022-09-28T11:13:49.078Z,2.53
2022-09-28T11:16:28.629Z,4.40
2022-09-28T11:18:58.406Z,3.00
2022-09-28T11:21:31.328Z,4.13
2022-09-28T11:24:19.722Z,1.97
2022-09-28T11:26:52.995Z,2.67
2022-09-28T11:29:32.258Z,4.93
2022-09-28T11:32:22.091Z,3.43
2022-09-28T11:35:19.826Z,3.13
2022-09-28T11:38:05.549Z,2.33
2022-09-28T11:41:18.283Z,4.27
2022-09-28T11:44:09.138Z,3.63
2022-09-28T11:46:50.177Z,5.53
2022-09-28T11:49:31.336Z,3.17
2022-09-28T11:52:08.021Z,9.23
2022-09-28T11:54:42.463Z,5.93
2022-09-28T11:57:17.983Z,1.63
2022-09-28T11:59:57.731Z,3.87
2022-09-28T12:02:31.257Z,3.93
2022-09-28T12:05:20.708Z,4.83
2022-09-28T12:07:54.249Z,2.70
2022-09-28T12:11:01.581Z,4.27
2022-09-28T12:14:11.714Z,5.77
2022-09-28T12:19:42.501Z,5.17
2022-09-28T12:22:19.624Z,2.53
2022-09-28T12:24:52.318Z,2.03
2022-09-28T12:27:28.238Z,6.10
2022-09-28T12:30:04.006Z,3.57
2022-09-28T12:32:40.491Z,5.40
2022-09-28T12:35:15.102Z,2.87
2022-09-28T12:37:58.755Z,6.57
2022-09-28T12:40:38.967Z,5.37
2022-09-28T12:43:34.203Z,3.93
2022-09-28T12:46:24.239Z,5.53
2022-09-28T12:52:30.250Z,7.67
2022-09-28T12:55:36.689Z,14.90
2022-09-28T12:58:26.748Z,10.63
2022-09-28T13:01:07.949Z,6.53
2022-09-28T13:04:12.772Z,2.57
2022-09-28T13:06:55.877Z,6.13
2022-09-28T13:09:26.541Z,5.83
2022-09-28T13:12:20.902Z,4.27
2022-09-28T13:15:16.404Z,5.60
2022-09-28T13:17:59.289Z,1.83
2022-09-28T13:20:40.466Z,2.53
2022-09-28T13:23:16.651Z,5.93
2022-09-28T13:25:51.455Z,3.77
2022-09-28T13:28:27.007Z,4.30
2022-09-28T13:33:37.005Z,3.83
2022-09-28T13:36:26.235Z,3.73
2022-09-28T13:38:55.676Z,3.77
2022-09-28T13:41:31.812Z,3.80
2022-09-28T13:44:33.544Z,5.40
2022-09-28T13:47:20.753Z,3.10
2022-09-28T13:50:03.073Z,1.43
2022-09-28T13:52:46.931Z,2.87
2022-09-28T13:55:36.027Z,3.60
2022-09-28T13:58:15.440Z,3.13
2022-09-28T14:00:51.391Z,1.60
2022-09-28T14:03:29.467Z,2.77
2022-09-28T14:06:11.054Z,3.37
2022-09-28T14:08:45.013Z,1.13
2022-09-28T14:11:50.057Z,1.83
2022-09-28T14:14:50.614Z,3.37
2022-09-28T14:17:55.771Z,1.60
2022-09-28T14:20:32.007Z,3.80
2022-09-28T14:23:27.358Z,1.87
2022-09-28T14:26:21.185Z,1.07
2022-09-28T14:29:05.221Z,2.73
2022-09-28T14:31:35.535Z,6.67
2022-09-28T14:34:08.193Z,5.33
2022-09-28T14:37:00.888Z,3.60
2022-09-28T14:39:52.402Z,3.57
2022-09-28T14:42:23.801Z,3.40
2022-09-28T14:45:30.287Z,7.07
2022-09-28T14:48:21.565Z,2.57
2022-09-28T14:50:55.798Z,4.37
2022-09-28T14:53:26.267Z,3.53
2022-09-28T14:55:59.100Z,2.37
2022-09-28T14:58:29.975Z,5.20
2022-09-28T15:01:06.621Z,3.30
2022-09-28T15:03:36.808Z,2.67
2022-09-28T15:06:05.394Z,4.03
2022-09-28T15:08:40.015Z,3.10
2022-09-28T15:11:15.437Z,4.70
2022-09-28T15:13:44.835Z,5.87
2022-09-28T15:16:15.574Z,5.17
2022-09-28T15:19:15.959Z,4.20
2022-09-28T15:21:47.508Z,8.13
2022-09-28T15:24:30.682Z,2.43
2022-09-28T15:27:00.281Z,3.80
2022-09-28T15:29:31.770Z,2.90
2022-09-28T15:32:00.560Z,4.00
2022-09-28T15:34:56.815Z,1.03
2022-09-28T15:37:28.846Z,4.43
2022-09-28T15:39:59.988Z,1.47
2022-09-28T15:42:31.634Z,2.50
2022-09-28T15:45:26.563Z,2.50
2022-09-28T15:48:18.859Z,6.87
2022-09-28T15:51:02.482Z,2.37
2022-09-28T15:53:31.509Z,10.27
2022-09-28T15:56:10.413Z,11.40
2022-09-28T15:58:40.487Z,4.40
2022-09-28T16:01:36.193Z,2.60
2022-09-28T16:04:56.529Z,3.30
2022-09-28T16:07:29.856Z,4.40
2022-09-28T16:10:07.753Z,8.97
2022-09-28T16:12:50.815Z,5.07
2022-09-28T16:15:22.743Z,4.60
2022-09-28T16:17:53.921Z,3.90
2022-09-28T16:20:29.697Z,3.50
2022-09-28T16:23:05.661Z,2.40
2022-09-28T16:25:35.905Z,6.70
2022-09-28T16:28:07.202Z,4.77
2022-09-28T16:30:36.333Z,3.90
2022-09-28T16:33:07.170Z,3.93
2022-09-28T16:35:52.039Z,5.13
2022-09-28T16:38:21.661Z,4.43
2022-09-28T16:40:53.865Z,3.10
2022-09-28T16:43:29.109Z,3.97
2022-09-28T16:45:59.956Z,4.87
2022-09-28T16:48:35.951Z,4.77
2022-09-28T16:51:04.545Z,3.83
2022-09-28T16:53:50.646Z,5.43
2022-09-28T16:56:19.102Z,2.97
2022-09-28T16:58:50.500Z,4.97
2022-09-28T17:01:19.651Z,2.63
2022-09-28T17:03:50.126Z,4.60
2022-09-28T17:06:20.516Z,2.93
2022-09-28T17:08:48.855Z,3.60
2022-09-28T17:11:24.501Z,4.63
2022-09-28T17:13:59.178Z,8.80
2022-09-28T17:19:22.263Z,7.47
2022-09-28T17:21:52.242Z,7.63
2022-09-28T17:24:21.801Z,7.30
2022-09-28T17:26:52.551Z,5.67
2022-09-28T17:29:22.527Z,4.97
2022-09-28T17:31:50.903Z,5.77
2022-09-28T17:34:20.214Z,4.33
2022-09-28T17:36:49.079Z,6.87
2022-09-28T17:39:19.211Z,7.53
2022-09-28T17:41:47.763Z,6.53
2022-09-28T17:44:16.639Z,7.27
2022-09-28T17:46:49.674Z,5.27
2022-09-28T17:49:18.945Z,9.53
2022-09-28T17:51:47.850Z,4.27
2022-09-28T17:54:19.999Z,7.93
2022-09-28T17:56:49.095Z,6.37
2022-09-28T17:59:19.588Z,5.63
2022-09-28T18:01:49.655Z,4.40
2022-09-28T18:04:40.176Z,4.47
2022-09-28T18:07:07.467Z,9.60
2022-09-28T18:09:36.203Z,5.03
2022-09-28T18:12:06.497Z,5.93
2022-09-28T18:14:35.962Z,6.13
2022-09-28T18:17:06.165Z,6.73
2022-09-28T18:19:34.708Z,6.63
2022-09-28T18:22:03.390Z,7.70
2022-09-28T18:24:32.630Z,6.37
2022-09-28T18:27:01.487Z,8.20
2022-09-28T18:29:33.268Z,6.70
2022-09-28T18:32:02.762Z,7.30
2022-09-28T18:34:32.713Z,7.83
2022-09-28T18:37:01.231Z,7.93
2022-09-28T18:39:30.517Z,11.27
2022-09-28T18:41:59.309Z,7.40
2022-09-28T18:44:27.930Z,9.43
2022-09-28T18:46:56.801Z,9.43
2022-09-28T18:49:25.596Z,8.80
2022-09-28T18:51:55.406Z,10.30
2022-09-28T18:54:24.602Z,11.07
2022-09-28T18:56:57.345Z,53.00
2022-09-28T18:59:26.143Z,6.40
2022-09-28T19:01:54.851Z,10.30
2022-09-28T19:04:23.630Z,6.70
2022-09-28T19:06:54.506Z,5.60
2022-09-28T19:09:26.629Z,6.30
2022-09-28T19:11:55.324Z,8.13
2022-09-28T19:14:23.840Z,7.60
2022-09-28T19:16:53.030Z,8.53
2022-09-28T19:19:22.282Z,8.67
2022-09-28T19:21:50.936Z,7.93
2022-09-28T19:24:21.812Z,11.83
2022-09-28T19:26:53.607Z,11.70
2022-09-28T19:29:22.817Z,11.50
2022-09-28T19:31:52.091Z,11.50
2022-09-28T19:34:24.471Z,11.50
2022-09-28T19:36:53.017Z,9.03
2022-09-28T19:39:21.755Z,8.00
2022-09-28T19:41:52.562Z,13.03
2022-09-28T19:44:28.253Z,9.47
2022-09-28T19:46:58.565Z,9.47
2022-09-28T19:49:32.984Z,13.17
2022-09-28T19:52:13.395Z,11.23
2022-09-28T19:54:45.041Z,10.77
2022-09-28T19:57:16.058Z,10.07
2022-09-28T19:59:48.408Z,12.20
2022-09-28T20:02:19.547Z,16.33
2022-09-28T20:04:48.012Z,11.07
2022-09-28T20:07:16.460Z,11.37
2022-09-28T20:09:45.131Z,12.10
2022-09-28T20:12:14.934Z,14.67
2022-09-28T20:14:43.358Z,16.37
2022-09-28T20:17:11.728Z,20.07
2022-09-28T20:19:40.489Z,13.10
2022-09-28T20:22:08.969Z,16.90
2022-09-28T20:24:37.605Z,13.47
2022-09-28T20:27:06.434Z,15.60
2022-09-28T20:29:36.422Z,15.80
2022-09-28T20:32:05.404Z,16.43
2022-09-28T20:34:35.597Z,18.50
2022-09-28T20:37:06.661Z,15.67
2022-09-28T20:39:35.834Z,16.10
2022-09-28T20:42:04.384Z,15.60
2022-09-28T20:44:32.754Z,16.30
2022-09-28T20:47:03.218Z,17.10
2022-09-28T20:49:32.087Z,22.23
2022-09-28T20:52:00.652Z,18.13
2022-09-28T20:54:29.494Z,15.23
2022-09-28T20:56:58.192Z,16.30
2022-09-28T20:59:27.838Z,15.33
2022-09-28T21:01:56.611Z,16.33
2022-09-28T21:04:27.133Z,18.40
2022-09-28T21:06:55.754Z,18.10
2022-09-28T21:09:24.395Z,19.70
2022-09-28T21:11:52.910Z,17.33
2022-09-28T21:14:21.449Z,17.73
2022-09-28T21:16:49.973Z,20.07
2022-09-28T21:19:18.431Z,21.10
2022-09-28T21:21:48.463Z,23.17
2022-09-28T21:24:17.102Z,20.33
2022-09-28T21:26:45.866Z,17.83
2022-09-28T21:29:15.942Z,23.23
2022-09-28T21:31:46.911Z,21.33
2022-09-28T21:34:19.977Z,21.93
2022-09-28T21:36:52.776Z,18.00
2022-09-28T21:39:21.403Z,14.80
2022-09-28T21:41:50.190Z,18.23
2022-09-28T21:44:18.875Z,19.03
2022-09-28T21:46:47.744Z,15.50
2022-09-28T21:49:16.287Z,14.13
2022-09-28T21:51:47.237Z,15.97
2022-09-28T21:54:17.181Z,13.27
2022-09-28T21:56:45.609Z,12.83
2022-09-28T21:59:14.092Z,13.83
2022-09-28T22:01:42.938Z,16.33
2022-09-28T22:04:12.310Z,14.90
2022-09-28T22:06:41.087Z,15.37
2022-09-28T22:09:09.902Z,12.93
2022-09-28T22:11:39.843Z,11.80
2022-09-28T22:14:08.838Z,12.70
2022-09-28T22:16:37.421Z,13.80
2022-09-28T22:19:05.773Z,19.87
2022-09-28T22:21:35.513Z,12.40
2022-09-28T22:24:07.346Z,15.10
2022-09-28T22:26:38.005Z,15.47
2022-09-28T22:29:09.630Z,12.63
2022-09-28T22:31:39.757Z,11.70
2022-09-28T22:34:09.356Z,12.50
2022-09-28T22:36:37.906Z,13.53
2022-09-28T22:39:06.567Z,14.73
2022-09-28T22:41:34.988Z,13.20
2022-09-28T22:44:03.683Z,16.93
2022-09-28T22:46:33.915Z,14.97
2022-09-28T22:49:02.636Z,14.57
2022-09-28T22:51:31.889Z,17.77
2022-09-28T22:54:01.386Z,14.73
2022-09-28T22:56:30.266Z,12.57
2022-09-28T22:58:58.864Z,12.40
2022-09-28T23:01:29.551Z,12.90
2022-09-28T23:04:00.106Z,15.70
2022-09-28T23:06:30.914Z,11.53
2022-09-28T23:08:59.528Z,18.43
2022-09-28T23:11:28.866Z,14.87
2022-09-28T23:13:59.110Z,17.53
2022-09-28T23:16:28.363Z,17.40
2022-09-28T23:18:57.237Z,13.40
2022-09-28T23:21:28.453Z,13.30
2022-09-28T23:23:58.702Z,16.30
2022-09-28T23:26:29.262Z,15.50
2022-09-28T23:28:58.156Z,17.43
2022-09-28T23:31:28.754Z,17.60
2022-09-28T23:34:01.436Z,16.83
2022-09-28T23:36:31.346Z,16.03
2022-09-28T23:38:59.901Z,17.33
2022-09-28T23:41:28.856Z,18.67
2022-09-28T23:43:57.609Z,13.00
2022-09-28T23:46:26.837Z,13.33
2022-09-28T23:49:01.484Z,18.07
2022-09-28T23:51:34.630Z,10.90
2022-09-28T23:54:05.471Z,14.13
2022-09-28T23:56:34.450Z,13.30
2022-09-28T23:59:03.289Z,14.93
